Nissho Maru No7 — JH3472 — position and weather

sailwx.info

Track history (hours):
 
Tides and Currents Weather Stations Pressure Air Temp Water Temp Dewpoint Dewpoint Depression Visibility Wind Speed Wind Dir Waves Ship Positions

Nissho Maru No7

Last reported at 2014-Jul-21 17:12 UTC. Time now 2014-Jul-25 09:02 UTC.
Position N 33°38' E 129°51'.

Length 73 m.

MMSI: 431200355.

Date/timePositionNaut miles runAvg speedWind from/ knotsBaromVisibWave heightAir tempDewpointWater temp
2014-Jul-21 17:12N 33°38' E 129°51'811.0
2014-Jul-21 16:31N 33°42' E 129°59'1010.9
2014-Jul-21 15:33N 33°48' E 130°09'23110.0
2014-Jul-20 16:30N 34°07' E 134°46'223 9.7
2014-Jul-19 17:30N 34°52' E 139°12'1010.2
2014-Jul-19 16:32N 34°57' E 139°22'1010.1
2014-Jul-19 15:33N 35°03' E 139°32'1211.5
2014-Jul-19 14:33N 35°09' E 139°43'1110.8
2014-Jul-19 13:33N 35°20' E 139°43'6 6.0
2014-Jul-19 12:33N 35°23' E 139°49'2 2.4
2014-Jul-19 11:33N 35°21' E 139°51'0 0.0
2014-Jul-19 10:33N 35°21' E 139°51'0 0.0
2014-Jul-19 09:15N 35°21' E 139°51'0 0.0
2014-Jul-19 08:27N 35°21' E 139°51'0 0.0
2014-Jul-19 07:33N 35°21' E 139°51'0 0.0
2014-Jul-19 06:24N 35°21' E 139°51'0 0.0
2014-Jul-19 05:33N 35°21' E 139°51'0 0.0
2014-Jul-19 04:33N 35°21' E 139°51'0 0.0
2014-Jul-19 02:18N 35°21' E 139°51'0 0.0
2014-Jul-19 01:24N 35°21' E 139°51'0 0.0
2014-Jul-19 00:30N 35°21' E 139°51'0 0.0
2014-Jul-18 23:18N 35°21' E 139°51'0 0.0
2014-Jul-18 22:24N 35°21' E 139°51'0 0.0
2014-Jul-18 19:30N 35°21' E 139°51'0 0.0
2014-Jul-18 18:33N 35°21' E 139°51'0 0.0
2014-Jul-18 17:33N 35°21' E 139°51'0 0.0
2014-Jul-18 16:33N 35°21' E 139°51'0 0.0
2014-Jul-18 15:30N 35°21' E 139°51'0 0.0
2014-Jul-18 14:33N 35°21' E 139°51'0 0.0
2014-Jul-18 13:33N 35°21' E 139°51'0 0.0
2014-Jul-18 12:33N 35°21' E 139°51'0 0.0
2014-Jul-18 11:30N 35°21' E 139°51'0 0.0
2014-Jul-18 10:24N 35°21' E 139°51'0 0.0
2014-Jul-18 09:30N 35°21' E 139°51'0 0.0
2014-Jul-18 08:24N 35°21' E 139°51'0 0.0
2014-Jul-18 07:21N 35°21' E 139°51'0 0.0
2014-Jul-18 06:33N 35°21' E 139°51'0 0.0
2014-Jul-18 05:30N 35°21' E 139°51'0 0.0
2014-Jul-18 04:30N 35°21' E 139°51'0 0.0
2014-Jul-18 03:30N 35°21' E 139°51'0 0.0
2014-Jul-18 02:30N 35°21' E 139°51'0 0.0
2014-Jul-18 01:24N 35°21' E 139°51'0 0.0
2014-Jul-18 00:30N 35°21' E 139°51'0 0.0
2014-Jul-17 23:30N 35°21' E 139°51'0 0.0
2014-Jul-17 22:30N 35°21' E 139°51'0 0.0
2014-Jul-17 21:24N 35°21' E 139°51'0 0.0
2014-Jul-17 20:33N 35°21' E 139°51'0 0.0
2014-Jul-17 19:33N 35°21' E 139°51'0 0.0
2014-Jul-17 18:27N 35°21' E 139°51'0 0.0
2014-Jul-17 17:33N 35°21' E 139°51'0 0.0
2014-Jul-17 16:33N 35°21' E 139°51'0 0.0
2014-Jul-17 15:33N 35°21' E 139°51'0 0.0
2014-Jul-17 14:30N 35°21' E 139°51'0 0.0
2014-Jul-17 13:27N 35°21' E 139°51'2 2.7
2014-Jul-17 12:32N 35°22' E 139°49'0 0.0
2014-Jul-17 11:32N 35°22' E 139°49'0 0.0
2014-Jul-17 10:32N 35°22' E 139°49'0 0.0
2014-Jul-17 09:32N 35°22' E 139°49'0 0.0
2014-Jul-17 08:32N 35°22' E 139°49'0 0.0
2014-Jul-17 07:33N 35°22' E 139°49'1010.4
2014-Jul-17 06:33N 35°32' E 139°52'6 6.3
2014-Jul-17 05:33N 35°37' E 139°48'0 0.0
2014-Jul-17 04:30N 35°37' E 139°48'0 0.0
2014-Jul-17 03:30N 35°37' E 139°48'0 0.0
2014-Jul-17 02:33N 35°37' E 139°48'0 0.0
2014-Jul-17 01:30N 35°37' E 139°48'0 0.0
2014-Jul-17 00:27N 35°37' E 139°48'0 0.0
2014-Jul-16 23:33N 35°37' E 139°48'4 3.6
2014-Jul-16 22:33N 35°35' E 139°51'1 1.1
2014-Jul-16 21:33N 35°34' E 139°52'1110.5
2014-Jul-16 20:33N 35°25' E 139°47'1110.6
2014-Jul-16 19:33N 35°14' E 139°47'1111.3
2014-Jul-16 18:33N 35°03' E 139°45'10 9.7
2014-Jul-16 17:32N 34°53' E 139°48'1110.1
2014-Jul-16 16:24N 34°56' E 140°01'9 9.7
2014-Jul-16 15:29N 35°00' E 140°11'22 9.2
2014-Jul-16 13:08N 35°14' E 140°30'10 9.8
2014-Jul-16 12:06N 35°23' E 140°38'610.1
2014-Jul-16 11:30N 35°28' E 140°42'29 8.9
2014-Jul-16 08:15N 35°57' E 140°45'4 6.0
2014-Jul-16 07:33N 35°56' E 140°40'0 0.0
2014-Jul-15 18:30N 35°56' E 140°40'0 0.0
2014-Jul-15 17:33N 35°56' E 140°40'0 0.0
2014-Jul-15 16:18N 35°56' E 140°40'0 0.0
2014-Jul-15 15:12N 35°56' E 140°40'0 0.0
2014-Jul-15 14:33N 35°56' E 140°40'0 0.0
2014-Jul-15 13:30N 35°56' E 140°40'0 0.0
2014-Jul-15 12:24N 35°56' E 140°40'0 0.0
2014-Jul-15 11:30N 35°56' E 140°40'0 0.0
2014-Jul-15 10:30N 35°56' E 140°40'0 0.0
2014-Jul-15 09:30N 35°56' E 140°40'0 0.1
2014-Jul-15 07:25N 35°56' E 140°40'0 0.0
2014-Jul-15 06:28N 35°56' E 140°40'0 0.0
2014-Jul-15 05:28N 35°56' E 140°40'0 0.0
2014-Jul-15 04:28N 35°56' E 140°40'0 0.0
2014-Jul-15 03:28N 35°56' E 140°40'0 0.0
2014-Jul-15 02:28N 35°56' E 140°40'0 0.0
2014-Jul-15 01:26N 35°56' E 140°40'0 0.0
2014-Jul-15 00:31N 35°56' E 140°40'0 0.1
2014-Jul-14 23:33N 35°56' E 140°40'2 1.0
2014-Jul-14 21:03N 35°57' E 140°42'0 0.0
2014-Jul-14 20:33N 35°57' E 140°42'0 0.0
2014-Jul-14 19:33N 35°57' E 140°42'0 0.1
2014-Jul-14 16:24N 35°57' E 140°42'9 9.3
2014-Jul-14 15:29N 35°51' E 140°50'1010.6
2014-Jul-14 14:33N 35°42' E 140°55'1111.3
2014-Jul-14 13:33N 35°33' E 140°47'4911.9
2014-Jul-14 09:28N 34°58' E 140°06'  
Track history (hours):
 
Tides and Currents Weather Stations Pressure Air Temp Water Temp Dewpoint Dewpoint Depression Visibility Wind Speed Wind Dir Waves Ship Positions

Nissho Maru No7

Last reported at 2014-Jul-21 17:12 UTC. Time now 2014-Jul-25 09:02 UTC.
Position N 33°38' E 129°51'.

Length 73 m.

MMSI: 431200355.

Date/timePositionNaut miles runAvg speedWind from/ knotsBaromVisibWave heightAir tempDewpointWater temp
2014-Jul-21 17:12N 33°38' E 129°51'811.0
2014-Jul-21 16:31N 33°42' E 129°59'1010.9
2014-Jul-21 15:33N 33°48' E 130°09'23110.0
2014-Jul-20 16:30N 34°07' E 134°46'223 9.7
2014-Jul-19 17:30N 34°52' E 139°12'1010.2
2014-Jul-19 16:32N 34°57' E 139°22'1010.1
2014-Jul-19 15:33N 35°03' E 139°32'1211.5
2014-Jul-19 14:33N 35°09' E 139°43'1110.8
2014-Jul-19 13:33N 35°20' E 139°43'6 6.0
2014-Jul-19 12:33N 35°23' E 139°49'2 2.4
2014-Jul-19 11:33N 35°21' E 139°51'0 0.0
2014-Jul-19 10:33N 35°21' E 139°51'0 0.0
2014-Jul-19 09:15N 35°21' E 139°51'0 0.0
2014-Jul-19 08:27N 35°21' E 139°51'0 0.0
2014-Jul-19 07:33N 35°21' E 139°51'0 0.0
2014-Jul-19 06:24N 35°21' E 139°51'0 0.0
2014-Jul-19 05:33N 35°21' E 139°51'0 0.0
2014-Jul-19 04:33N 35°21' E 139°51'0 0.0
2014-Jul-19 02:18N 35°21' E 139°51'0 0.0
2014-Jul-19 01:24N 35°21' E 139°51'0 0.0
2014-Jul-19 00:30N 35°21' E 139°51'0 0.0
2014-Jul-18 23:18N 35°21' E 139°51'0 0.0
2014-Jul-18 22:24N 35°21' E 139°51'0 0.0
2014-Jul-18 19:30N 35°21' E 139°51'0 0.0
2014-Jul-18 18:33N 35°21' E 139°51'0 0.0
2014-Jul-18 17:33N 35°21' E 139°51'0 0.0
2014-Jul-18 16:33N 35°21' E 139°51'0 0.0
2014-Jul-18 15:30N 35°21' E 139°51'0 0.0
2014-Jul-18 14:33N 35°21' E 139°51'0 0.0
2014-Jul-18 13:33N 35°21' E 139°51'0 0.0
2014-Jul-18 12:33N 35°21' E 139°51'0 0.0
2014-Jul-18 11:30N 35°21' E 139°51'0 0.0
2014-Jul-18 10:24N 35°21' E 139°51'0 0.0
2014-Jul-18 09:30N 35°21' E 139°51'0 0.0
2014-Jul-18 08:24N 35°21' E 139°51'0 0.0
2014-Jul-18 07:21N 35°21' E 139°51'0 0.0
2014-Jul-18 06:33N 35°21' E 139°51'0 0.0
2014-Jul-18 05:30N 35°21' E 139°51'0 0.0
2014-Jul-18 04:30N 35°21' E 139°51'0 0.0
2014-Jul-18 03:30N 35°21' E 139°51'0 0.0
2014-Jul-18 02:30N 35°21' E 139°51'0 0.0
2014-Jul-18 01:24N 35°21' E 139°51'0 0.0
2014-Jul-18 00:30N 35°21' E 139°51'0 0.0
2014-Jul-17 23:30N 35°21' E 139°51'0 0.0
2014-Jul-17 22:30N 35°21' E 139°51'0 0.0
2014-Jul-17 21:24N 35°21' E 139°51'0 0.0
2014-Jul-17 20:33N 35°21' E 139°51'0 0.0
2014-Jul-17 19:33N 35°21' E 139°51'0 0.0
2014-Jul-17 18:27N 35°21' E 139°51'0 0.0
2014-Jul-17 17:33N 35°21' E 139°51'0 0.0
2014-Jul-17 16:33N 35°21' E 139°51'0 0.0
2014-Jul-17 15:33N 35°21' E 139°51'0 0.0
2014-Jul-17 14:30N 35°21' E 139°51'0 0.0
2014-Jul-17 13:27N 35°21' E 139°51'2 2.7
2014-Jul-17 12:32N 35°22' E 139°49'0 0.0
2014-Jul-17 11:32N 35°22' E 139°49'0 0.0
2014-Jul-17 10:32N 35°22' E 139°49'0 0.0
2014-Jul-17 09:32N 35°22' E 139°49'0 0.0
2014-Jul-17 08:32N 35°22' E 139°49'0 0.0
2014-Jul-17 07:33N 35°22' E 139°49'1010.4
2014-Jul-17 06:33N 35°32' E 139°52'6 6.3
2014-Jul-17 05:33N 35°37' E 139°48'0 0.0
2014-Jul-17 04:30N 35°37' E 139°48'0 0.0
2014-Jul-17 03:30N 35°37' E 139°48'0 0.0
2014-Jul-17 02:33N 35°37' E 139°48'0 0.0
2014-Jul-17 01:30N 35°37' E 139°48'0 0.0
2014-Jul-17 00:27N 35°37' E 139°48'0 0.0
2014-Jul-16 23:33N 35°37' E 139°48'4 3.6
2014-Jul-16 22:33N 35°35' E 139°51'1 1.1
2014-Jul-16 21:33N 35°34' E 139°52'1110.5
2014-Jul-16 20:33N 35°25' E 139°47'1110.6
2014-Jul-16 19:33N 35°14' E 139°47'1111.3
2014-Jul-16 18:33N 35°03' E 139°45'10 9.7
2014-Jul-16 17:32N 34°53' E 139°48'1110.1
2014-Jul-16 16:24N 34°56' E 140°01'9 9.7
2014-Jul-16 15:29N 35°00' E 140°11'22 9.2
2014-Jul-16 13:08N 35°14' E 140°30'10 9.8
2014-Jul-16 12:06N 35°23' E 140°38'610.1
2014-Jul-16 11:30N 35°28' E 140°42'29 8.9
2014-Jul-16 08:15N 35°57' E 140°45'4 6.0
2014-Jul-16 07:33N 35°56' E 140°40'0 0.0
2014-Jul-15 18:30N 35°56' E 140°40'0 0.0
2014-Jul-15 17:33N 35°56' E 140°40'0 0.0
2014-Jul-15 16:18N 35°56' E 140°40'0 0.0
2014-Jul-15 15:12N 35°56' E 140°40'0 0.0
2014-Jul-15 14:33N 35°56' E 140°40'0 0.0
2014-Jul-15 13:30N 35°56' E 140°40'0 0.0
2014-Jul-15 12:24N 35°56' E 140°40'0 0.0
2014-Jul-15 11:30N 35°56' E 140°40'0 0.0
2014-Jul-15 10:30N 35°56' E 140°40'0 0.0
2014-Jul-15 09:30N 35°56' E 140°40'0 0.1
2014-Jul-15 07:25N 35°56' E 140°40'0 0.0
2014-Jul-15 06:28N 35°56' E 140°40'0 0.0
2014-Jul-15 05:28N 35°56' E 140°40'0 0.0
2014-Jul-15 04:28N 35°56' E 140°40'0 0.0
2014-Jul-15 03:28N 35°56' E 140°40'0 0.0
2014-Jul-15 02:28N 35°56' E 140°40'0 0.0
2014-Jul-15 01:26N 35°56' E 140°40'0 0.0
2014-Jul-15 00:31N 35°56' E 140°40'0 0.1
2014-Jul-14 23:33N 35°56' E 140°40'2 1.0
2014-Jul-14 21:03N 35°57' E 140°42'0 0.0
2014-Jul-14 20:33N 35°57' E 140°42'0 0.0
2014-Jul-14 19:33N 35°57' E 140°42'0 0.1
2014-Jul-14 16:24N 35°57' E 140°42'9 9.3
2014-Jul-14 15:29N 35°51' E 140°50'1010.6
2014-Jul-14 14:33N 35°42' E 140°55'1111.3
2014-Jul-14 13:33N 35°33' E 140°47'4911.9
2014-Jul-14 09:28N 34°58' E 140°06'  

Dump ship's entire track history